createdAt,value
2022-10-25T00:02:35.000Z,7.71
2022-10-25T00:07:35.000Z,7.71
2022-10-25T00:17:35.000Z,6.47
2022-10-25T00:22:35.000Z,6.8
2022-10-25T00:27:35.000Z,7.52
2022-10-25T00:32:35.000Z,7.96
2022-10-25T00:37:35.000Z,8.04
2022-10-25T00:47:34.000Z,7
2022-10-25T00:52:34.000Z,6.71
2022-10-25T00:57:35.000Z,7.08
2022-10-25T01:02:35.000Z,7.53
2022-10-25T01:07:35.000Z,8.45
2022-10-25T01:12:35.000Z,8.1
2022-10-25T01:17:35.000Z,8.27
2022-10-25T01:22:35.000Z,8.93
2022-10-25T01:27:34.000Z,9.4
2022-10-25T01:32:35.000Z,8.72
2022-10-25T01:57:34.000Z,7.48
2022-10-25T02:02:34.000Z,7.41
2022-10-25T02:07:35.000Z,6.13
2022-10-25T02:12:34.000Z,6.66
2022-10-25T02:17:35.000Z,7.37
2022-10-25T02:22:35.000Z,7.9
2022-10-25T02:27:35.000Z,7.67
2022-10-25T02:32:34.000Z,6.08
2022-10-25T02:37:35.000Z,6.13
2022-10-25T02:42:35.000Z,29.36
2022-10-25T02:47:34.000Z,25.15
2022-10-25T02:52:34.000Z,9.3
2022-10-25T02:57:35.000Z,9.4
2022-10-25T03:02:35.000Z,9.02
2022-10-25T03:07:35.000Z,9.02
2022-10-25T03:12:35.000Z,11.31
2022-10-25T03:17:35.000Z,11.6
2022-10-25T03:22:34.000Z,11.05
2022-10-25T03:27:34.000Z,9.93
2022-10-25T03:32:35.000Z,8.98
2022-10-25T03:37:35.000Z,8.59
2022-10-25T03:42:35.000Z,8.35
2022-10-25T03:47:35.000Z,7.76
2022-10-25T03:52:34.000Z,7.45
2022-10-25T03:57:35.000Z,6.34
2022-10-25T04:02:34.000Z,6.41
2022-10-25T04:07:35.000Z,6.47
2022-10-25T04:12:34.000Z,7.59
2022-10-25T04:17:35.000Z,9.66
2022-10-25T04:27:35.000Z,11.33
2022-10-25T04:32:35.000Z,11.03
2022-10-25T04:37:34.000Z,8.31
2022-10-25T04:42:34.000Z,8.2
2022-10-25T04:47:35.000Z,7.51
2022-10-25T04:52:34.000Z,9.18
2022-10-25T04:57:35.000Z,7.91
2022-10-25T05:02:35.000Z,7.9
2022-10-25T05:07:34.000Z,13.73
2022-10-25T05:12:35.000Z,16.26
2022-10-25T05:17:35.000Z,16.68
2022-10-25T05:22:35.000Z,16.27
2022-10-25T05:27:35.000Z,16.4
2022-10-25T05:32:35.000Z,23.77
2022-10-25T05:37:35.000Z,23.77
2022-10-25T05:42:35.000Z,25.95
2022-10-25T05:47:35.000Z,24.19
2022-10-25T05:52:35.000Z,22.37
2022-10-25T05:57:34.000Z,21.78
2022-10-25T06:02:35.000Z,20.63
2022-10-25T06:07:35.000Z,17.92
2022-10-25T06:12:35.000Z,18.68
2022-10-25T06:17:35.000Z,17.91
2022-10-25T06:22:34.000Z,17.1
2022-10-25T06:27:35.000Z,12.36
2022-10-25T06:32:35.000Z,10.2
2022-10-25T06:37:35.000Z,8.63
2022-10-25T06:42:34.000Z,9.33
2022-10-25T06:47:35.000Z,9.33
2022-10-25T06:52:35.000Z,10.81
2022-10-25T06:57:35.000Z,13.3
2022-10-25T07:02:35.000Z,13.38
2022-10-25T07:07:35.000Z,11.91
2022-10-25T07:12:35.000Z,9.6
2022-10-25T07:17:34.000Z,10.09
2022-10-25T07:22:35.000Z,8.23
2022-10-25T07:27:34.000Z,7.32
2022-10-25T07:32:35.000Z,5.9
2022-10-25T07:37:34.000Z,5.04
2022-10-25T07:42:34.000Z,5.3
2022-10-25T07:47:34.000Z,5.38
2022-10-25T07:52:35.000Z,5.44
2022-10-25T07:57:35.000Z,4.95
2022-10-25T08:02:36.000Z,4.78
2022-10-25T08:07:34.000Z,4.78
2022-10-25T08:12:34.000Z,3.32
2022-10-25T08:17:35.000Z,3.05
2022-10-25T08:22:34.000Z,4.21
2022-10-25T08:27:34.000Z,3.98
2022-10-25T08:32:35.000Z,4.12
2022-10-25T08:37:34.000Z,3.69
2022-10-25T08:42:34.000Z,5.02
2022-10-25T08:47:34.000Z,5.67
2022-10-25T08:52:34.000Z,4.97
2022-10-25T08:57:34.000Z,3.59
2022-10-25T09:02:35.000Z,5.09
2022-10-25T09:07:35.000Z,3.94
2022-10-25T09:12:35.000Z,3.87
2022-10-25T09:17:34.000Z,5.06
2022-10-25T09:22:34.000Z,5.06
2022-10-25T09:32:35.000Z,4.31
2022-10-25T09:37:35.000Z,3.94
2022-10-25T09:42:34.000Z,4.77
2022-10-25T09:47:35.000Z,5.07
2022-10-25T09:52:35.000Z,5.13
2022-10-25T09:57:34.000Z,6.57
2022-10-25T10:07:34.000Z,5.26
2022-10-25T10:12:35.000Z,5.45
2022-10-25T10:17:35.000Z,5.45
2022-10-25T10:22:35.000Z,5.98
2022-10-25T10:27:35.000Z,4.94
2022-10-25T10:32:34.000Z,5.29
2022-10-25T10:37:34.000Z,6.08
2022-10-25T10:47:35.000Z,8.28
2022-10-25T10:52:35.000Z,9.41
2022-10-25T10:57:34.000Z,9.33
2022-10-25T11:02:36.000Z,9.33
2022-10-25T11:07:34.000Z,10.29
2022-10-25T11:12:35.000Z,11.77
2022-10-25T11:17:35.000Z,13.35
2022-10-25T11:22:42.000Z,11.81
2022-10-25T11:27:35.000Z,9.39
2022-10-25T11:37:34.000Z,11.71
2022-10-25T11:42:35.000Z,11.51
2022-10-25T11:52:34.000Z,10.37
2022-10-25T11:57:34.000Z,8.94
2022-10-25T12:02:35.000Z,8.94
2022-10-25T12:12:35.000Z,8.05
2022-10-25T12:17:34.000Z,9.93
2022-10-25T12:22:35.000Z,9.29
2022-10-25T12:27:34.000Z,9.55
2022-10-25T12:32:35.000Z,8.59
2022-10-25T12:37:35.000Z,8.53
2022-10-25T12:42:35.000Z,9.33
2022-10-25T12:47:35.000Z,11.04
2022-10-25T12:52:35.000Z,11.04
2022-10-25T12:57:34.000Z,10.37
2022-10-25T13:02:35.000Z,9.88
2022-10-25T13:07:35.000Z,11.28
2022-10-25T13:12:35.000Z,8.54
2022-10-25T13:17:35.000Z,10
2022-10-25T13:22:35.000Z,11.76
2022-10-25T13:27:35.000Z,12.45
2022-10-25T13:32:35.000Z,19.01
2022-10-25T13:37:35.000Z,21.03
2022-10-25T13:42:35.000Z,22.37
2022-10-25T13:47:35.000Z,20.39
2022-10-25T13:52:34.000Z,19.43
2022-10-25T13:57:35.000Z,19.43
2022-10-25T14:07:34.000Z,22.65
2022-10-25T14:12:34.000Z,19.98
2022-10-25T14:17:35.000Z,18.92
2022-10-25T14:22:39.000Z,21.46
2022-10-25T14:27:35.000Z,22.85
2022-10-25T14:32:34.000Z,22.97
2022-10-25T14:37:34.000Z,24.93
2022-10-25T14:47:35.000Z,23.76
2022-10-25T14:52:35.000Z,25.81
2022-10-25T14:57:35.000Z,25.81
2022-10-25T15:02:34.000Z,26.95
2022-10-25T15:07:35.000Z,27.58
2022-10-25T15:12:35.000Z,27.5
2022-10-25T15:17:34.000Z,28.44
2022-10-25T15:22:35.000Z,26.33
2022-10-25T15:27:34.000Z,25.45
2022-10-25T15:32:34.000Z,25.36
2022-10-25T15:42:35.000Z,21.83
2022-10-25T15:47:35.000Z,25
2022-10-25T15:52:35.000Z,29.97
2022-10-25T15:57:35.000Z,29.86
2022-10-25T16:02:34.000Z,29.86
2022-10-25T16:07:35.000Z,31.46
2022-10-25T16:12:34.000Z,30.84
2022-10-25T16:17:35.000Z,28.54
2022-10-25T16:22:34.000Z,28.23
2022-10-25T16:27:35.000Z,27.67
2022-10-25T16:32:35.000Z,27.3
2022-10-25T16:37:35.000Z,28.98
2022-10-25T16:42:35.000Z,27.5
2022-10-25T16:47:34.000Z,28.07
2022-10-25T16:52:35.000Z,29.55
2022-10-25T16:57:35.000Z,29.72
2022-10-25T17:02:34.000Z,31.31
2022-10-25T17:07:35.000Z,30.41
2022-10-25T17:12:34.000Z,29.3
2022-10-25T17:17:34.000Z,29.3
2022-10-25T17:22:35.000Z,29.45
2022-10-25T17:27:34.000Z,28.51
2022-10-25T17:32:34.000Z,28.2
2022-10-25T17:37:34.000Z,28.56
2022-10-25T17:42:35.000Z,28.11
2022-10-25T17:47:35.000Z,25.9
2022-10-25T17:52:35.000Z,25.89
2022-10-25T17:57:35.000Z,25.45
2022-10-25T18:02:35.000Z,26.38
2022-10-25T18:07:35.000Z,25.02
2022-10-25T18:12:35.000Z,25.04
2022-10-25T18:17:34.000Z,24.87
2022-10-25T18:22:35.000Z,24.87
2022-10-25T18:27:35.000Z,25.29
2022-10-25T18:32:35.000Z,27.25
2022-10-25T18:37:35.000Z,27.89
2022-10-25T18:42:34.000Z,28.08
2022-10-25T18:47:35.000Z,29.07
2022-10-25T18:52:34.000Z,32.31
2022-10-25T18:57:35.000Z,32.74
2022-10-25T19:12:35.000Z,29.81
2022-10-25T19:17:35.000Z,32.19
2022-10-25T19:22:35.000Z,33.44
2022-10-25T19:27:35.000Z,33.34
2022-10-25T19:32:35.000Z,32.83
2022-10-25T19:37:35.000Z,34.46
2022-10-25T19:42:35.000Z,34.42
2022-10-25T19:47:35.000Z,34.83
2022-10-25T19:52:35.000Z,34.82
2022-10-25T19:57:34.000Z,35.27
2022-10-25T20:02:35.000Z,35.64
2022-10-25T20:07:34.000Z,36.66
2022-10-25T20:12:35.000Z,36.01
2022-10-25T20:17:35.000Z,34.68
2022-10-25T20:22:35.000Z,34.68
2022-10-25T20:27:35.000Z,27.4
2022-10-25T20:37:35.000Z,21.15
2022-10-25T20:42:34.000Z,23.17
2022-10-25T20:47:35.000Z,23.55
2022-10-25T20:52:34.000Z,22.01
2022-10-25T20:57:35.000Z,22.85
2022-10-25T21:02:35.000Z,25.74
2022-10-25T21:07:35.000Z,25.74
2022-10-25T21:12:35.000Z,32.29
2022-10-25T21:17:35.000Z,32.22
2022-10-25T21:22:35.000Z,30.33
2022-10-25T21:27:34.000Z,30.08
2022-10-25T21:32:34.000Z,30.78
2022-10-25T21:37:34.000Z,29.57
2022-10-25T21:42:35.000Z,30.15
2022-10-25T21:47:35.000Z,29.29
2022-10-25T21:52:35.000Z,27.21
2022-10-25T21:57:35.000Z,23.63
2022-10-25T22:02:35.000Z,24.09
2022-10-25T22:07:34.000Z,23.26
2022-10-25T22:12:35.000Z,27.15
2022-10-25T22:22:34.000Z,25.98
2022-10-25T22:27:35.000Z,25.36
2022-10-25T22:32:34.000Z,25.26
2022-10-25T22:37:35.000Z,24.86
2022-10-25T22:42:35.000Z,21.8
2022-10-25T22:47:35.000Z,24.54
2022-10-25T22:52:35.000Z,26.39
2022-10-25T22:57:35.000Z,27.8
2022-10-25T23:02:34.000Z,28.33
2022-10-25T23:07:35.000Z,24.23
2022-10-25T23:12:34.000Z,21.48
2022-10-25T23:17:35.000Z,21.48
2022-10-25T23:22:35.000Z,23.87
2022-10-25T23:27:35.000Z,28.45
2022-10-25T23:32:34.000Z,26.26
2022-10-25T23:37:34.000Z,22.37
2022-10-25T23:42:35.000Z,21.03
2022-10-25T23:47:35.000Z,18.91
2022-10-25T23:52:35.000Z,17.01
2022-10-25T23:57:35.000Z,13.53
